sensor_id;sensor_type;location;lat;lon;timestamp;pressure;altitude;pressure_sealevel;temperature;humidity
75549;BME280;64133;56.002;37.208;2023-03-14T00:03:24;98632.95;;;-4.94;71.33
75549;BME280;64133;56.002;37.208;2023-03-14T00:08:29;98622.47;;;-4.88;71.20
75549;BME280;64133;56.002;37.208;2023-03-14T00:13:52;98613.10;;;-4.76;71.11
75549;BME280;64133;56.002;37.208;2023-03-14T00:19:15;98599.18;;;-4.69;71.00
75549;BME280;64133;56.002;37.208;2023-03-14T00:24:37;98587.47;;;-4.64;71.06
75549;BME280;64133;56.002;37.208;2023-03-14T00:30:01;98582.95;;;-4.58;70.93
75549;BME280;64133;56.002;37.208;2023-03-14T00:35:24;98566.53;;;-4.53;71.05
75549;BME280;64133;56.002;37.208;2023-03-14T00:40:46;98579.13;;;-4.46;71.12
75549;BME280;64133;56.002;37.208;2023-03-14T00:46:09;98566.48;;;-4.39;71.27
75549;BME280;64133;56.002;37.208;2023-03-14T00:51:32;98560.78;;;-4.23;71.32
75549;BME280;64133;56.002;37.208;2023-03-14T00:56:36;98538.60;;;-4.14;71.48
75549;BME280;64133;56.002;37.208;2023-03-14T01:01:40;98545.88;;;-4.02;71.89
75549;BME280;64133;56.002;37.208;2023-03-14T01:06:45;98535.39;;;-3.96;72.26
75549;BME280;64133;56.002;37.208;2023-03-14T01:11:49;98525.42;;;-3.93;72.73
75549;BME280;64133;56.002;37.208;2023-03-14T01:16:53;98518.71;;;-3.86;73.21
75549;BME280;64133;56.002;37.208;2023-03-14T01:22:16;98486.38;;;-3.81;73.64
75549;BME280;64133;56.002;37.208;2023-03-14T01:27:39;98469.20;;;-3.81;74.60
75549;BME280;64133;56.002;37.208;2023-03-14T01:33:02;98454.48;;;-3.77;75.27
75549;BME280;64133;56.002;37.208;2023-03-14T01:38:06;98460.36;;;-3.73;75.92
75549;BME280;64133;56.002;37.208;2023-03-14T01:43:15;98442.93;;;-3.67;76.42
75549;BME280;64133;56.002;37.208;2023-03-14T01:48:19;98463.02;;;-3.65;76.84
75549;BME280;64133;56.002;37.208;2023-03-14T01:53:22;98445.73;;;-3.61;77.16
75549;BME280;64133;56.002;37.208;2023-03-14T01:58:27;98426.02;;;-3.62;77.78
75549;BME280;64133;56.002;37.208;2023-03-14T02:03:30;98414.06;;;-3.63;78.36
75549;BME280;64133;56.002;37.208;2023-03-14T02:08:35;98397.27;;;-3.62;78.73
75549;BME280;64133;56.002;37.208;2023-03-14T02:13:38;98390.26;;;-3.58;79.30
75549;BME280;64133;56.002;37.208;2023-03-14T02:18:42;98392.83;;;-3.58;79.77
75549;BME280;64133;56.002;37.208;2023-03-14T02:23:49;98373.53;;;-3.58;80.47
75549;BME280;64133;56.002;37.208;2023-03-14T02:28:52;98361.38;;;-3.55;80.63
75549;BME280;64133;56.002;37.208;2023-03-14T02:33:57;98366.53;;;-3.55;81.27
75549;BME280;64133;56.002;37.208;2023-03-14T02:39:03;98347.87;;;-3.49;82.13
75549;BME280;64133;56.002;37.208;2023-03-14T02:44:06;98338.47;;;-3.40;82.17
75549;BME280;64133;56.002;37.208;2023-03-14T02:49:10;98338.98;;;-3.32;82.36
75549;BME280;64133;56.002;37.208;2023-03-14T02:54:14;98346.84;;;-3.25;82.72
75549;BME280;64133;56.002;37.208;2023-03-14T02:59:19;98331.58;;;-3.19;83.02
75549;BME280;64133;56.002;37.208;2023-03-14T03:04:22;98330.47;;;-3.14;83.03
75549;BME280;64133;56.002;37.208;2023-03-14T03:09:27;98310.07;;;-3.08;83.44
75549;BME280;64133;56.002;37.208;2023-03-14T03:14:31;98316.15;;;-3.00;83.88
75549;BME280;64133;56.002;37.208;2023-03-14T03:19:35;98305.14;;;-2.94;84.13
75549;BME280;64133;56.002;37.208;2023-03-14T03:24:39;98280.78;;;-2.87;84.25
75549;BME280;64133;56.002;37.208;2023-03-14T03:29:44;98269.67;;;-2.79;84.41
75549;BME280;64133;56.002;37.208;2023-03-14T03:34:49;98257.70;;;-2.71;84.67
75549;BME280;64133;56.002;37.208;2023-03-14T03:39:53;98244.47;;;-2.63;84.74
75549;BME280;64133;56.002;37.208;2023-03-14T03:44:58;98239.80;;;-2.55;84.97
75549;BME280;64133;56.002;37.208;2023-03-14T03:50:03;98237.00;;;-2.50;85.09
75549;BME280;64133;56.002;37.208;2023-03-14T03:55:09;98228.51;;;-2.44;85.40
75549;BME280;64133;56.002;37.208;2023-03-14T04:00:14;98232.02;;;-2.36;85.44
75549;BME280;64133;56.002;37.208;2023-03-14T04:05:19;98222.94;;;-2.35;85.72
75549;BME280;64133;56.002;37.208;2023-03-14T04:10:23;98235.30;;;-2.24;85.98
75549;BME280;64133;56.002;37.208;2023-03-14T04:15:28;98220.29;;;-2.16;86.00
75549;BME280;64133;56.002;37.208;2023-03-14T04:20:34;98203.06;;;-2.07;86.05
75549;BME280;64133;56.002;37.208;2023-03-14T04:25:39;98205.96;;;-1.95;86.13
75549;BME280;64133;56.002;37.208;2023-03-14T04:30:44;98188.41;;;-1.89;86.04
75549;BME280;64133;56.002;37.208;2023-03-14T04:35:48;98168.06;;;-1.78;86.13
75549;BME280;64133;56.002;37.208;2023-03-14T04:40:54;98147.77;;;-1.68;86.20
75549;BME280;64133;56.002;37.208;2023-03-14T04:45:59;98134.98;;;-1.62;86.22
75549;BME280;64133;56.002;37.208;2023-03-14T04:51:04;98126.84;;;-1.55;86.29
75549;BME280;64133;56.002;37.208;2023-03-14T04:56:09;98118.98;;;-1.44;86.24
75549;BME280;64133;56.002;37.208;2023-03-14T05:01:14;98121.98;;;-1.36;86.31
75549;BME280;64133;56.002;37.208;2023-03-14T05:06:19;98122.05;;;-1.29;86.40
75549;BME280;64133;56.002;37.208;2023-03-14T05:11:23;98120.77;;;-1.22;86.42
75549;BME280;64133;56.002;37.208;2023-03-14T05:16:28;98109.20;;;-1.15;86.52
75549;BME280;64133;56.002;37.208;2023-03-14T05:21:33;98115.92;;;-1.04;86.55
75549;BME280;64133;56.002;37.208;2023-03-14T05:26:37;98124.45;;;-0.94;86.52
75549;BME280;64133;56.002;37.208;2023-03-14T05:31:42;98130.09;;;-0.88;86.61
75549;BME280;64133;56.002;37.208;2023-03-14T05:36:47;98139.03;;;-0.78;86.68
75549;BME280;64133;56.002;37.208;2023-03-14T05:41:51;98132.98;;;-0.69;86.60
75549;BME280;64133;56.002;37.208;2023-03-14T05:46:56;98125.06;;;-0.59;86.55
75549;BME280;64133;56.002;37.208;2023-03-14T05:52:00;98134.19;;;-0.38;86.60
75549;BME280;64133;56.002;37.208;2023-03-14T05:57:05;98141.81;;;-0.20;86.54
75549;BME280;64133;56.002;37.208;2023-03-14T06:02:10;98134.53;;;-0.07;86.31
75549;BME280;64133;56.002;37.208;2023-03-14T06:07:14;98145.73;;;0.08;86.13
75549;BME280;64133;56.002;37.208;2023-03-14T06:12:19;98129.75;;;0.16;85.78
75549;BME280;64133;56.002;37.208;2023-03-14T06:17:24;98132.91;;;0.28;85.60
75549;BME280;64133;56.002;37.208;2023-03-14T06:22:28;98117.28;;;0.44;85.37
75549;BME280;64133;56.002;37.208;2023-03-14T06:27:33;98113.27;;;0.60;85.11
75549;BME280;64133;56.002;37.208;2023-03-14T06:32:38;98123.06;;;0.76;84.74
75549;BME280;64133;56.002;37.208;2023-03-14T06:37:42;98115.58;;;0.71;84.29
75549;BME280;64133;56.002;37.208;2023-03-14T06:42:50;98128.67;;;0.97;84.06
75549;BME280;64133;56.002;37.208;2023-03-14T06:47:55;98119.27;;;1.09;83.59
75549;BME280;64133;56.002;37.208;2023-03-14T06:52:59;98117.07;;;1.10;83.30
75549;BME280;64133;56.002;37.208;2023-03-14T06:58:10;98106.30;;;1.09;83.31
75549;BME280;64133;56.002;37.208;2023-03-14T07:03:15;98103.87;;;1.20;83.18
75549;BME280;64133;56.002;37.208;2023-03-14T07:08:19;98106.09;;;1.39;82.78
75549;BME280;64133;56.002;37.208;2023-03-14T07:13:24;98100.22;;;1.82;82.89
75549;BME280;64133;56.002;37.208;2023-03-14T07:18:29;98098.02;;;1.96;81.84
75549;BME280;64133;56.002;37.208;2023-03-14T07:23:33;98101.61;;;2.00;81.38
75549;BME280;64133;56.002;37.208;2023-03-14T07:28:38;98114.56;;;2.26;80.68
75549;BME280;64133;56.002;37.208;2023-03-14T07:33:43;98117.95;;;2.34;80.01
75549;BME280;64133;56.002;37.208;2023-03-14T07:38:47;98126.41;;;2.30;79.58
75549;BME280;64133;56.002;37.208;2023-03-14T07:43:52;98118.73;;;2.03;79.81
75549;BME280;64133;56.002;37.208;2023-03-14T07:48:57;98132.71;;;2.20;79.76
75549;BME280;64133;56.002;37.208;2023-03-14T07:54:01;98135.63;;;2.41;79.37
75549;BME280;64133;56.002;37.208;2023-03-14T07:59:06;98137.95;;;2.39;78.93
75549;BME280;64133;56.002;37.208;2023-03-14T08:04:11;98124.41;;;2.15;79.19
75549;BME280;64133;56.002;37.208;2023-03-14T08:09:16;98146.69;;;2.38;78.93
75549;BME280;64133;56.002;37.208;2023-03-14T08:14:20;98122.98;;;2.42;78.75
75549;BME280;64133;56.002;37.208;2023-03-14T08:19:25;98140.84;;;2.60;78.18
75549;BME280;64133;56.002;37.208;2023-03-14T08:24:30;98144.73;;;2.72;77.94
75549;BME280;64133;56.002;37.208;2023-03-14T08:29:34;98139.81;;;2.62;77.46
75549;BME280;64133;56.002;37.208;2023-03-14T08:34:39;98156.36;;;2.61;77.17
75549;BME280;64133;56.002;37.208;2023-03-14T08:39:46;98140.45;;;2.84;76.73
75549;BME280;64133;56.002;37.208;2023-03-14T08:44:51;98138.70;;;2.90;76.95
75549;BME280;64133;56.002;37.208;2023-03-14T08:49:55;98134.06;;;3.01;76.06
75549;BME280;64133;56.002;37.208;2023-03-14T08:55:00;98125.31;;;3.02;75.72
75549;BME280;64133;56.002;37.208;2023-03-14T09:00:06;98119.59;;;3.69;75.31
75549;BME280;64133;56.002;37.208;2023-03-14T09:05:12;98129.98;;;3.63;74.13
75549;BME280;64133;56.002;37.208;2023-03-14T09:10:17;98115.34;;;3.73;73.99
75549;BME280;64133;56.002;37.208;2023-03-14T09:15:22;98110.91;;;4.09;72.50
75549;BME280;64133;56.002;37.208;2023-03-14T09:20:27;98129.31;;;3.78;72.37
75549;BME280;64133;56.002;37.208;2023-03-14T09:25:31;98129.62;;;4.03;71.86
75549;BME280;64133;56.002;37.208;2023-03-14T09:30:36;98148.30;;;3.91;71.49
75549;BME280;64133;56.002;37.208;2023-03-14T09:35:41;98145.27;;;4.03;70.85
75549;BME280;64133;56.002;37.208;2023-03-14T09:40:45;98140.09;;;4.14;70.23
75549;BME280;64133;56.002;37.208;2023-03-14T09:45:50;98132.30;;;4.37;70.02
75549;BME280;64133;56.002;37.208;2023-03-14T09:50:55;98126.33;;;4.18;69.68
75549;BME280;64133;56.002;37.208;2023-03-14T09:55:59;98130.14;;;4.19;69.61
75549;BME280;64133;56.002;37.208;2023-03-14T10:01:04;98140.05;;;4.03;69.66
75549;BME280;64133;56.002;37.208;2023-03-14T10:11:25;98128.53;;;3.30;71.48
75549;BME280;64133;56.002;37.208;2023-03-14T10:16:31;98126.28;;;3.31;71.83
75549;BME280;64133;56.002;37.208;2023-03-14T10:21:38;98127.32;;;3.04;72.60
75549;BME280;64133;56.002;37.208;2023-03-14T10:26:42;98128.39;;;3.01;73.79
75549;BME280;64133;56.002;37.208;2023-03-14T10:31:50;98116.14;;;3.09;74.53
75549;BME280;64133;56.002;37.208;2023-03-14T10:36:57;98110.25;;;3.42;74.65
75549;BME280;64133;56.002;37.208;2023-03-14T10:42:06;98104.01;;;3.45;73.94
75549;BME280;64133;56.002;37.208;2023-03-14T10:47:15;98096.53;;;3.40;74.43
75549;BME280;64133;56.002;37.208;2023-03-14T10:52:23;98083.61;;;3.39;74.98
75549;BME280;64133;56.002;37.208;2023-03-14T10:57:27;98073.92;;;3.87;74.26
75549;BME280;64133;56.002;37.208;2023-03-14T11:02:42;98086.12;;;3.75;74.19
75549;BME280;64133;56.002;37.208;2023-03-14T11:07:45;98083.69;;;3.96;73.59
75549;BME280;64133;56.002;37.208;2023-03-14T11:12:56;98088.16;;;4.00;73.03
75549;BME280;64133;56.002;37.208;2023-03-14T11:18:30;98075.88;;;4.30;72.63
75549;BME280;64133;56.002;37.208;2023-03-14T11:23:35;98090.88;;;4.94;70.67
75549;BME280;64133;56.002;37.208;2023-03-14T11:28:38;98092.99;;;5.00;69.31
75549;BME280;64133;56.002;37.208;2023-03-14T11:33:47;98104.33;;;5.21;68.94
75549;BME280;64133;56.002;37.208;2023-03-14T11:38:52;98092.59;;;5.21;68.62
75549;BME280;64133;56.002;37.208;2023-03-14T11:43:56;98100.91;;;5.79;67.35
75549;BME280;64133;56.002;37.208;2023-03-14T11:49:03;98113.08;;;5.37;66.97
75549;BME280;64133;56.002;37.208;2023-03-14T11:54:11;98092.08;;;4.90;67.70
75549;BME280;64133;56.002;37.208;2023-03-14T11:59:15;98114.63;;;4.79;67.98
75549;BME280;64133;56.002;37.208;2023-03-14T12:04:28;98133.46;;;4.94;67.60
75549;BME280;64133;56.002;37.208;2023-03-14T12:09:31;98140.80;;;5.00;67.07
75549;BME280;64133;56.002;37.208;2023-03-14T12:14:36;98110.77;;;5.12;67.03
75549;BME280;64133;56.002;37.208;2023-03-14T12:19:40;98111.80;;;5.32;66.15
75549;BME280;64133;56.002;37.208;2023-03-14T12:24:47;98130.03;;;4.94;66.12
75549;BME280;64133;56.002;37.208;2023-03-14T12:30:00;98143.44;;;4.56;66.79
75549;BME280;64133;56.002;37.208;2023-03-14T12:35:35;98147.83;;;4.49;67.21
75549;BME280;64133;56.002;37.208;2023-03-14T12:40:40;98107.52;;;4.48;67.17
75549;BME280;64133;56.002;37.208;2023-03-14T12:45:44;98099.95;;;4.62;67.04
75549;BME280;64133;56.002;37.208;2023-03-14T12:50:54;98117.00;;;4.77;66.74
75549;BME280;64133;56.002;37.208;2023-03-14T12:56:00;98129.92;;;4.73;66.43
75549;BME280;64133;56.002;37.208;2023-03-14T13:01:05;98127.42;;;4.83;66.26
75549;BME280;64133;56.002;37.208;2023-03-14T13:06:10;98125.19;;;4.84;65.91
75549;BME280;64133;56.002;37.208;2023-03-14T13:11:16;98118.06;;;4.80;65.73
75549;BME280;64133;56.002;37.208;2023-03-14T13:16:20;98114.75;;;4.72;65.74
75549;BME280;64133;56.002;37.208;2023-03-14T13:21:25;98110.48;;;4.71;65.66
75549;BME280;64133;56.002;37.208;2023-03-14T13:26:35;98121.16;;;4.79;65.44
75549;BME280;64133;56.002;37.208;2023-03-14T13:31:38;98116.84;;;4.95;64.94
75549;BME280;64133;56.002;37.208;2023-03-14T13:36:42;98116.75;;;4.86;64.78
75549;BME280;64133;56.002;37.208;2023-03-14T13:41:47;98120.92;;;4.71;64.82
75549;BME280;64133;56.002;37.208;2023-03-14T13:46:52;98115.83;;;4.75;64.68
75549;BME280;64133;56.002;37.208;2023-03-14T13:51:57;98127.30;;;4.78;64.19
75549;BME280;64133;56.002;37.208;2023-03-14T13:57:02;98117.13;;;4.75;64.09
75549;BME280;64133;56.002;37.208;2023-03-14T14:07:21;98125.05;;;4.74;63.73
75549;BME280;64133;56.002;37.208;2023-03-14T14:12:27;98129.70;;;4.70;63.42
75549;BME280;64133;56.002;37.208;2023-03-14T14:17:31;98133.37;;;4.68;62.99
75549;BME280;64133;56.002;37.208;2023-03-14T14:22:35;98130.88;;;4.72;62.80
75549;BME280;64133;56.002;37.208;2023-03-14T14:27:41;98129.34;;;4.75;62.68
75549;BME280;64133;56.002;37.208;2023-03-14T14:32:45;98135.02;;;4.80;62.27
75549;BME280;64133;56.002;37.208;2023-03-14T14:37:49;98134.08;;;4.75;62.25
75549;BME280;64133;56.002;37.208;2023-03-14T14:42:54;98125.79;;;4.70;62.00
75549;BME280;64133;56.002;37.208;2023-03-14T14:48:03;98125.67;;;4.66;62.00
75549;BME280;64133;56.002;37.208;2023-03-14T14:53:19;98111.78;;;4.60;62.09
75549;BME280;64133;56.002;37.208;2023-03-14T14:58:18;98108.35;;;4.60;62.18
75549;BME280;64133;56.002;37.208;2023-03-14T15:03:21;98121.52;;;4.58;62.22
75549;BME280;64133;56.002;37.208;2023-03-14T15:08:26;98126.03;;;4.62;61.97
75549;BME280;64133;56.002;37.208;2023-03-14T15:13:30;98127.33;;;4.62;61.90
75549;BME280;64133;56.002;37.208;2023-03-14T15:18:35;98115.95;;;4.57;61.58
75549;BME280;64133;56.002;37.208;2023-03-14T15:23:40;98117.70;;;4.57;61.79
75549;BME280;64133;56.002;37.208;2023-03-14T15:28:44;98126.97;;;4.55;61.53
75549;BME280;64133;56.002;37.208;2023-03-14T15:33:50;98127.45;;;4.49;61.55
75549;BME280;64133;56.002;37.208;2023-03-14T15:38:55;98130.06;;;4.49;61.16
75549;BME280;64133;56.002;37.208;2023-03-14T15:44:00;98130.41;;;4.44;61.21
75549;BME280;64133;56.002;37.208;2023-03-14T15:49:04;98144.38;;;4.43;61.36
75549;BME280;64133;56.002;37.208;2023-03-14T15:54:09;98161.09;;;4.41;61.49
75549;BME280;64133;56.002;37.208;2023-03-14T15:59:16;98156.94;;;4.44;61.12
75549;BME280;64133;56.002;37.208;2023-03-14T16:04:21;98165.23;;;4.43;61.23
75549;BME280;64133;56.002;37.208;2023-03-14T16:09:25;98171.75;;;4.43;61.08
75549;BME280;64133;56.002;37.208;2023-03-14T16:14:30;98184.44;;;4.48;61.05
75549;BME280;64133;56.002;37.208;2023-03-14T16:19:35;98199.64;;;4.48;60.94
75549;BME280;64133;56.002;37.208;2023-03-14T16:24:39;98210.38;;;4.44;60.97
75549;BME280;64133;56.002;37.208;2023-03-14T16:29:44;98228.84;;;4.29;60.99
75549;BME280;64133;56.002;37.208;2023-03-14T16:34:49;98227.47;;;4.07;61.39
75549;BME280;64133;56.002;37.208;2023-03-14T16:39:54;98219.52;;;4.03;61.67
75549;BME280;64133;56.002;37.208;2023-03-14T16:45:00;98222.81;;;3.99;61.56
75549;BME280;64133;56.002;37.208;2023-03-14T16:50:06;98217.34;;;3.91;61.85
75549;BME280;64133;56.002;37.208;2023-03-14T16:55:13;98228.02;;;3.94;61.87
75549;BME280;64133;56.002;37.208;2023-03-14T17:00:20;98217.96;;;4.00;61.59
75549;BME280;64133;56.002;37.208;2023-03-14T17:05:24;98219.17;;;4.02;61.61
75549;BME280;64133;56.002;37.208;2023-03-14T17:10:29;98258.42;;;4.17;61.20
75549;BME280;64133;56.002;37.208;2023-03-14T17:15:34;98221.22;;;4.10;61.14
75549;BME280;64133;56.002;37.208;2023-03-14T17:20:41;98218.83;;;4.07;61.17
75549;BME280;64133;56.002;37.208;2023-03-14T17:25:44;98234.68;;;4.03;61.05
75549;BME280;64133;56.002;37.208;2023-03-14T17:30:49;98221.42;;;4.01;60.87
75549;BME280;64133;56.002;37.208;2023-03-14T17:35:56;98221.87;;;4.00;60.79
75549;BME280;64133;56.002;37.208;2023-03-14T17:46:18;98229.94;;;3.97;61.00
75549;BME280;64133;56.002;37.208;2023-03-14T17:51:23;98246.12;;;3.90;61.03
75549;BME280;64133;56.002;37.208;2023-03-14T17:56:28;98250.02;;;3.90;61.03
75549;BME280;64133;56.002;37.208;2023-03-14T18:01:32;98237.69;;;3.86;61.00
75549;BME280;64133;56.002;37.208;2023-03-14T18:06:37;98223.81;;;3.80;61.22
75549;BME280;64133;56.002;37.208;2023-03-14T18:11:42;98220.25;;;3.75;61.28
75549;BME280;64133;56.002;37.208;2023-03-14T18:16:47;98214.63;;;3.69;61.26
75549;BME280;64133;56.002;37.208;2023-03-14T18:21:51;98215.47;;;3.69;61.29
75549;BME280;64133;56.002;37.208;2023-03-14T18:26:56;98225.05;;;3.69;61.20
75549;BME280;64133;56.002;37.208;2023-03-14T18:32:01;98217.15;;;3.70;61.13
75549;BME280;64133;56.002;37.208;2023-03-14T18:37:05;98221.97;;;3.69;61.13
75549;BME280;64133;56.002;37.208;2023-03-14T18:42:10;98227.18;;;3.69;61.07
75549;BME280;64133;56.002;37.208;2023-03-14T18:47:15;98240.73;;;3.74;60.89
75549;BME280;64133;56.002;37.208;2023-03-14T18:57:33;98233.41;;;3.80;60.70
75549;BME280;64133;56.002;37.208;2023-03-14T19:02:38;98248.63;;;3.73;60.80
75549;BME280;64133;56.002;37.208;2023-03-14T19:07:42;98236.48;;;3.79;60.72
75549;BME280;64133;56.002;37.208;2023-03-14T19:12:47;98233.77;;;3.81;60.74
75549;BME280;64133;56.002;37.208;2023-03-14T19:17:52;98240.29;;;3.86;60.58
75549;BME280;64133;56.002;37.208;2023-03-14T19:22:56;98253.44;;;3.85;60.45
75549;BME280;64133;56.002;37.208;2023-03-14T19:28:01;98251.80;;;3.89;60.22
75549;BME280;64133;56.002;37.208;2023-03-14T19:33:06;98264.09;;;3.87;60.17
75549;BME280;64133;56.002;37.208;2023-03-14T19:38:11;98269.00;;;3.92;59.62
75549;BME280;64133;56.002;37.208;2023-03-14T19:43:15;98264.56;;;3.87;59.51
75549;BME280;64133;56.002;37.208;2023-03-14T19:48:20;98274.96;;;3.81;59.59
75549;BME280;64133;56.002;37.208;2023-03-14T19:53:25;98274.48;;;3.82;59.54
75549;BME280;64133;56.002;37.208;2023-03-14T19:58:30;98261.23;;;3.79;59.29
75549;BME280;64133;56.002;37.208;2023-03-14T20:03:35;98280.65;;;3.81;59.09
75549;BME280;64133;56.002;37.208;2023-03-14T20:08:40;98272.19;;;3.71;59.01
75549;BME280;64133;56.002;37.208;2023-03-14T20:13:45;98269.84;;;3.56;59.06
75549;BME280;64133;56.002;37.208;2023-03-14T20:18:49;98274.37;;;3.41;59.28
75549;BME280;64133;56.002;37.208;2023-03-14T20:23:54;98277.34;;;3.29;59.48
75549;BME280;64133;56.002;37.208;2023-03-14T20:28:59;98279.27;;;3.33;59.32
75549;BME280;64133;56.002;37.208;2023-03-14T20:34:03;98286.34;;;3.31;59.17
75549;BME280;64133;56.002;37.208;2023-03-14T20:39:08;98278.17;;;3.30;59.06
75549;BME280;64133;56.002;37.208;2023-03-14T20:44:13;98285.16;;;3.29;58.97
75549;BME280;64133;56.002;37.208;2023-03-14T20:49:17;98287.96;;;3.26;58.78
75549;BME280;64133;56.002;37.208;2023-03-14T20:54:22;98290.36;;;3.29;58.54
75549;BME280;64133;56.002;37.208;2023-03-14T20:59:27;98297.49;;;3.33;58.51
75549;BME280;64133;56.002;37.208;2023-03-14T21:04:31;98306.64;;;3.57;58.01
75549;BME280;64133;56.002;37.208;2023-03-14T21:09:36;98305.22;;;3.71;57.35
75549;BME280;64133;56.002;37.208;2023-03-14T21:14:41;98304.89;;;3.75;57.02
75549;BME280;64133;56.002;37.208;2023-03-14T21:19:47;98312.41;;;3.67;56.67
75549;BME280;64133;56.002;37.208;2023-03-14T21:24:52;98305.75;;;3.63;56.54
75549;BME280;64133;56.002;37.208;2023-03-14T21:29:57;98307.38;;;3.59;56.61
75549;BME280;64133;56.002;37.208;2023-03-14T21:35:01;98300.37;;;3.72;56.50
75549;BME280;64133;56.002;37.208;2023-03-14T21:40:08;98311.05;;;3.74;56.25
75549;BME280;64133;56.002;37.208;2023-03-14T21:45:12;98297.58;;;3.81;56.00
75549;BME280;64133;56.002;37.208;2023-03-14T21:50:18;98288.94;;;3.80;55.59
75549;BME280;64133;56.002;37.208;2023-03-14T21:55:23;98288.11;;;3.80;55.52
75549;BME280;64133;56.002;37.208;2023-03-14T22:00:27;98300.25;;;3.73;55.42
75549;BME280;64133;56.002;37.208;2023-03-14T22:05:32;98297.29;;;3.72;55.35
75549;BME280;64133;56.002;37.208;2023-03-14T22:10:41;98301.31;;;3.71;55.41
75549;BME280;64133;56.002;37.208;2023-03-14T22:15:41;98292.28;;;3.69;55.22
75549;BME280;64133;56.002;37.208;2023-03-14T22:20:46;98284.92;;;3.63;55.20
75549;BME280;64133;56.002;37.208;2023-03-14T22:25:50;98284.95;;;3.50;55.26
75549;BME280;64133;56.002;37.208;2023-03-14T22:30:55;98291.44;;;3.45;55.41
75549;BME280;64133;56.002;37.208;2023-03-14T22:36:00;98283.06;;;3.52;55.36
75549;BME280;64133;56.002;37.208;2023-03-14T22:41:05;98299.52;;;3.66;55.17
75549;BME280;64133;56.002;37.208;2023-03-14T22:46:10;98297.35;;;3.65;55.11
75549;BME280;64133;56.002;37.208;2023-03-14T22:51:14;98305.28;;;3.64;55.10
75549;BME280;64133;56.002;37.208;2023-03-14T22:56:19;98297.50;;;3.51;55.14
75549;BME280;64133;56.002;37.208;2023-03-14T23:01:24;98295.66;;;3.40;55.52
75549;BME280;64133;56.002;37.208;2023-03-14T23:06:28;98302.47;;;3.48;55.37
75549;BME280;64133;56.002;37.208;2023-03-14T23:11:33;98312.33;;;3.56;55.20
75549;BME280;64133;56.002;37.208;2023-03-14T23:16:38;98309.66;;;3.45;55.34
75549;BME280;64133;56.002;37.208;2023-03-14T23:21:43;98311.82;;;3.51;55.17
75549;BME280;64133;56.002;37.208;2023-03-14T23:26:47;98314.86;;;3.45;55.17
75549;BME280;64133;56.002;37.208;2023-03-14T23:31:52;98313.56;;;3.45;55.22
75549;BME280;64133;56.002;37.208;2023-03-14T23:36:56;98311.16;;;3.42;55.32
75549;BME280;64133;56.002;37.208;2023-03-14T23:42:01;98312.31;;;3.38;55.52
75549;BME280;64133;56.002;37.208;2023-03-14T23:47:12;98308.26;;;3.34;55.47
75549;BME280;64133;56.002;37.208;2023-03-14T23:52:17;98311.30;;;3.27;55.56
75549;BME280;64133;56.002;37.208;2023-03-14T23:57:21;98316.91;;;3.21;55.73
